createdAt,value
2022-11-16T00:00:30.497Z,7.13
2022-11-16T00:03:18.274Z,7.15
2022-11-16T00:06:09.890Z,7.12
2022-11-16T00:09:18.839Z,7.05
2022-11-16T00:12:09.844Z,7.12
2022-11-16T00:14:57.474Z,7.14
2022-11-16T00:17:45.178Z,7.01
2022-11-16T00:20:32.843Z,7.05
2022-11-16T00:23:20.690Z,7.01
2022-11-16T00:26:12.578Z,7.00
2022-11-16T00:29:00.344Z,7.03
2022-11-16T00:31:48.631Z,7.09
2022-11-16T00:34:36.472Z,7.10
2022-11-16T00:37:24.121Z,7.14
2022-11-16T00:40:15.414Z,7.12
2022-11-16T00:43:03.049Z,7.19
2022-11-16T00:45:53.467Z,7.21
2022-11-16T00:48:41.105Z,7.25
2022-11-16T00:51:28.920Z,7.21
2022-11-16T00:54:17.185Z,7.24
2022-11-16T00:57:05.340Z,7.15
2022-11-16T00:59:52.991Z,7.28
2022-11-16T01:02:54.757Z,7.17
2022-11-16T01:05:45.393Z,7.15
2022-11-16T01:08:37.216Z,7.18
2022-11-16T01:11:43.295Z,7.05
2022-11-16T01:14:30.930Z,7.01
2022-11-16T01:17:18.595Z,7.12
2022-11-16T01:20:09.464Z,7.06
2022-11-16T01:22:57.562Z,7.02
2022-11-16T01:25:45.259Z,7.00
2022-11-16T01:28:33.548Z,7.04
2022-11-16T01:31:22.134Z,7.07
2022-11-16T01:34:12.193Z,7.03
2022-11-16T01:36:59.872Z,7.12
2022-11-16T01:39:51.611Z,6.93
2022-11-16T01:42:39.868Z,6.90
2022-11-16T01:45:38.942Z,7.00
2022-11-16T01:48:31.002Z,7.04
2022-11-16T01:51:21.390Z,7.04
2022-11-16T01:54:12.757Z,7.02
2022-11-16T01:57:14.131Z,7.07
2022-11-16T02:00:11.702Z,6.90
2022-11-16T02:03:05.312Z,7.13
2022-11-16T02:06:28.821Z,7.11
2022-11-16T02:09:54.958Z,7.01
2022-11-16T02:13:11.689Z,7.06
2022-11-16T02:16:15.915Z,6.97
2022-11-16T02:19:22.526Z,7.06
2022-11-16T02:22:22.442Z,6.97
2022-11-16T02:25:16.980Z,6.92
2022-11-16T02:28:38.827Z,6.90
2022-11-16T02:31:31.184Z,6.97
2022-11-16T02:34:21.576Z,6.92
2022-11-16T02:37:12.107Z,6.85
2022-11-16T02:40:05.089Z,6.93
2022-11-16T02:43:02.247Z,6.89
2022-11-16T02:45:52.949Z,6.89
2022-11-16T02:48:47.298Z,6.90
2022-11-16T02:51:36.841Z,6.76
2022-11-16T02:54:25.234Z,6.83
2022-11-16T02:57:37.933Z,6.82
2022-11-16T03:00:45.028Z,6.85
2022-11-16T03:03:45.913Z,6.75
2022-11-16T03:06:39.647Z,6.66
2022-11-16T03:09:33.194Z,6.75
2022-11-16T03:12:25.624Z,6.65
2022-11-16T03:15:13.836Z,6.72
2022-11-16T03:18:01.601Z,6.70
2022-11-16T03:20:54.046Z,6.68
2022-11-16T03:23:41.635Z,6.70
2022-11-16T03:26:36.345Z,6.80
2022-11-16T03:29:31.870Z,6.75
2022-11-16T03:32:43.487Z,6.72
2022-11-16T03:35:40.835Z,6.63
2022-11-16T03:38:31.384Z,6.51
2022-11-16T03:41:23.072Z,6.61
2022-11-16T03:44:15.335Z,6.68
2022-11-16T03:47:03.116Z,6.64
2022-11-16T03:49:50.899Z,6.68
2022-11-16T03:52:40.269Z,6.58
2022-11-16T03:55:28.344Z,6.58
2022-11-16T03:58:18.826Z,6.53
2022-11-16T04:01:09.058Z,6.40
2022-11-16T04:03:57.092Z,6.42
2022-11-16T04:07:03.499Z,6.37
2022-11-16T04:10:09.531Z,6.59
2022-11-16T04:13:16.726Z,6.54
2022-11-16T04:16:23.287Z,6.56
2022-11-16T04:19:29.292Z,6.65
2022-11-16T04:22:39.745Z,6.48
2022-11-16T04:25:34.941Z,6.48
2022-11-16T04:28:26.863Z,6.47
2022-11-16T04:31:39.998Z,6.36
2022-11-16T04:34:49.926Z,6.23
2022-11-16T04:37:50.019Z,6.13
2022-11-16T04:40:42.741Z,6.12
2022-11-16T04:43:33.186Z,6.21
2022-11-16T04:46:39.211Z,6.24
2022-11-16T04:49:26.953Z,6.08
2022-11-16T04:52:20.460Z,6.28
2022-11-16T04:55:09.871Z,6.28
2022-11-16T04:58:02.186Z,6.32
2022-11-16T05:00:52.485Z,6.23
2022-11-16T05:03:42.208Z,6.18
2022-11-16T05:06:29.897Z,6.15
2022-11-16T05:09:17.611Z,6.11
2022-11-16T05:12:06.106Z,6.05
2022-11-16T05:14:56.583Z,6.08
2022-11-16T05:17:55.073Z,5.97
2022-11-16T05:21:04.450Z,6.08
2022-11-16T05:24:21.099Z,5.99
2022-11-16T05:27:17.210Z,6.02
2022-11-16T05:30:06.272Z,5.92
2022-11-16T05:32:54.723Z,5.87
2022-11-16T05:35:45.615Z,6.07
2022-11-16T05:38:35.196Z,5.97
2022-11-16T05:41:23.298Z,5.87
2022-11-16T05:44:11.593Z,5.87
2022-11-16T05:47:00.309Z,5.85
2022-11-16T05:49:48.845Z,6.05
2022-11-16T05:52:39.224Z,6.02
2022-11-16T05:55:31.140Z,6.06
2022-11-16T05:58:19.077Z,6.07
2022-11-16T06:01:09.037Z,6.21
2022-11-16T06:04:01.258Z,6.11
2022-11-16T06:06:51.359Z,6.15
2022-11-16T06:09:40.007Z,6.05
2022-11-16T06:12:37.785Z,5.96
2022-11-16T06:15:25.797Z,6.01
2022-11-16T06:18:13.815Z,6.01
2022-11-16T06:21:01.648Z,5.91
2022-11-16T06:23:52.315Z,5.92
2022-11-16T06:26:43.145Z,5.95
2022-11-16T06:29:30.945Z,5.97
2022-11-16T06:32:20.782Z,6.07
2022-11-16T06:35:09.178Z,6.02
2022-11-16T06:37:59.249Z,6.09
2022-11-16T06:40:59.008Z,6.04
2022-11-16T06:43:49.149Z,6.05
2022-11-16T06:46:39.737Z,6.05
2022-11-16T06:49:28.249Z,6.24
2022-11-16T06:52:19.887Z,6.29
2022-11-16T06:55:08.007Z,6.46
2022-11-16T06:57:57.360Z,6.38
2022-11-16T07:00:47.928Z,6.30
2022-11-16T07:03:36.679Z,6.33
2022-11-16T07:06:25.742Z,6.21
2022-11-16T07:09:14.573Z,6.25
2022-11-16T07:12:02.355Z,6.26
2022-11-16T07:14:55.857Z,6.28
2022-11-16T07:17:45.886Z,6.29
2022-11-16T07:20:34.846Z,6.36
2022-11-16T07:23:23.647Z,6.52
2022-11-16T07:26:12.098Z,6.63
2022-11-16T07:29:05.954Z,6.48
2022-11-16T07:31:56.097Z,6.52
2022-11-16T07:35:02.447Z,6.46
2022-11-16T07:37:51.519Z,6.49
2022-11-16T07:40:39.613Z,6.27
2022-11-16T07:43:35.436Z,6.34
2022-11-16T07:46:48.487Z,6.51
2022-11-16T07:49:37.561Z,6.68
2022-11-16T07:52:37.284Z,6.81
2022-11-16T07:55:33.473Z,6.66
2022-11-16T07:58:23.238Z,6.76
2022-11-16T08:01:13.546Z,6.72
2022-11-16T08:04:04.555Z,6.78
2022-11-16T08:06:52.507Z,6.85
2022-11-16T08:09:41.598Z,6.92
2022-11-16T08:12:32.759Z,7.10
2022-11-16T08:15:20.623Z,7.15
2022-11-16T08:18:08.841Z,7.05
2022-11-16T08:20:59.157Z,7.25
2022-11-16T08:23:47.347Z,7.15
2022-11-16T08:26:35.665Z,7.19
2022-11-16T08:29:29.609Z,7.23
2022-11-16T08:32:19.261Z,7.07
2022-11-16T08:35:09.875Z,7.53
2022-11-16T08:37:58.036Z,7.45
2022-11-16T08:40:51.057Z,7.64
2022-11-16T08:43:42.223Z,7.80
2022-11-16T08:46:30.491Z,7.87
2022-11-16T08:49:31.267Z,7.62
2022-11-16T08:52:19.068Z,7.72
2022-11-16T08:55:07.858Z,8.09
2022-11-16T08:57:56.005Z,8.14
2022-11-16T09:00:46.900Z,8.25
2022-11-16T09:03:34.592Z,8.36
2022-11-16T09:06:24.611Z,8.39
2022-11-16T09:09:12.307Z,8.51
2022-11-16T09:15:06.762Z,8.26
2022-11-16T09:17:55.200Z,8.29
2022-11-16T09:20:46.115Z,8.11
2022-11-16T09:23:33.796Z,8.07
2022-11-16T09:26:23.447Z,8.42
2022-11-16T09:29:13.181Z,8.52
2022-11-16T09:32:07.034Z,8.69
2022-11-16T09:34:54.738Z,8.69
2022-11-16T09:37:45.231Z,9.00
2022-11-16T09:40:39.083Z,9.53
2022-11-16T09:44:02.159Z,9.64
2022-11-16T09:46:59.088Z,9.75
2022-11-16T09:50:12.776Z,9.69
2022-11-16T09:53:14.664Z,9.87
2022-11-16T09:56:21.837Z,9.84
2022-11-16T09:59:18.406Z,9.57
2022-11-16T10:02:50.732Z,9.53
2022-11-16T10:05:57.536Z,9.63
2022-11-16T10:08:49.210Z,9.97
2022-11-16T10:11:55.603Z,9.95
2022-11-16T10:15:06.910Z,9.96
2022-11-16T10:18:04.632Z,10.35
2022-11-16T10:21:09.324Z,10.31
2022-11-16T10:24:18.858Z,11.20
2022-11-16T10:27:27.987Z,11.38
2022-11-16T10:30:18.983Z,11.57
2022-11-16T10:33:12.653Z,11.64
2022-11-16T10:36:14.545Z,11.48
2022-11-16T10:39:02.913Z,11.61
2022-11-16T10:41:50.963Z,11.39
2022-11-16T10:44:38.592Z,11.28
2022-11-16T10:47:42.856Z,11.31
2022-11-16T10:50:45.175Z,11.28
2022-11-16T10:53:35.755Z,11.11
2022-11-16T10:56:30.435Z,11.26
2022-11-16T10:59:21.683Z,11.80
2022-11-16T11:02:37.689Z,11.89
2022-11-16T11:05:27.230Z,11.68
2022-11-16T11:08:26.228Z,12.04
2022-11-16T11:11:40.009Z,11.85
2022-11-16T11:14:27.730Z,12.20
2022-11-16T11:17:18.282Z,12.41
2022-11-16T11:20:07.361Z,12.34
2022-11-16T11:23:04.884Z,11.97
2022-11-16T11:25:58.982Z,12.35
2022-11-16T11:28:50.108Z,12.46
2022-11-16T11:31:45.395Z,12.23
2022-11-16T11:34:40.483Z,12.43
2022-11-16T11:37:34.843Z,12.65
2022-11-16T11:43:34.655Z,13.34
2022-11-16T11:46:50.225Z,13.38
2022-11-16T11:49:42.278Z,13.32
2022-11-16T11:52:39.495Z,13.27
2022-11-16T11:55:27.492Z,13.02
2022-11-16T11:58:18.771Z,12.97
2022-11-16T12:01:34.722Z,13.00
2022-11-16T12:04:50.406Z,12.73
2022-11-16T12:08:12.813Z,12.86
2022-11-16T12:11:10.772Z,12.79
2022-11-16T12:14:18.845Z,12.48
2022-11-16T12:17:17.604Z,12.53
2022-11-16T12:20:42.956Z,12.39
2022-11-16T12:24:01.853Z,12.63
2022-11-16T12:27:15.893Z,12.40
2022-11-16T12:30:18.705Z,12.47
2022-11-16T12:33:15.473Z,12.63
2022-11-16T12:36:29.442Z,12.50
2022-11-16T12:40:00.438Z,12.51
2022-11-16T12:43:09.143Z,12.29
2022-11-16T12:46:03.966Z,12.21
2022-11-16T12:49:03.130Z,12.25
2022-11-16T12:52:10.471Z,12.12
2022-11-16T12:55:28.711Z,12.23
2022-11-16T12:58:27.866Z,12.12
2022-11-16T13:01:37.301Z,11.91
2022-11-16T13:04:34.334Z,11.90
2022-11-16T13:07:39.161Z,11.96
2022-11-16T13:10:31.840Z,11.94
2022-11-16T13:13:38.586Z,11.84
2022-11-16T13:16:27.847Z,11.90
2022-11-16T13:19:16.871Z,11.87
2022-11-16T13:22:14.416Z,11.82
2022-11-16T13:25:07.980Z,11.76
2022-11-16T13:28:00.247Z,11.64
2022-11-16T13:30:57.859Z,11.65
2022-11-16T13:33:51.287Z,11.62
2022-11-16T13:36:45.840Z,11.49
2022-11-16T13:39:58.654Z,11.51
2022-11-16T13:42:58.846Z,11.49
2022-11-16T13:45:52.171Z,11.50
2022-11-16T13:48:45.827Z,11.54
2022-11-16T13:51:33.759Z,11.52
2022-11-16T13:54:46.852Z,11.56
2022-11-16T13:57:35.175Z,11.56
2022-11-16T14:00:30.976Z,11.56
2022-11-16T14:03:18.705Z,11.56
2022-11-16T14:06:24.670Z,11.55
2022-11-16T14:09:49.612Z,11.56
2022-11-16T14:12:51.668Z,11.59
2022-11-16T14:15:39.425Z,11.60
2022-11-16T14:18:37.449Z,11.57
2022-11-16T14:22:12.099Z,11.63
2022-11-16T14:25:14.593Z,11.40
2022-11-16T14:28:20.813Z,11.33
2022-11-16T14:31:14.232Z,11.44
2022-11-16T14:34:08.333Z,11.44
2022-11-16T14:36:56.371Z,11.33
2022-11-16T14:39:45.632Z,11.25
2022-11-16T14:42:48.443Z,11.23
2022-11-16T14:46:14.115Z,11.16
2022-11-16T14:49:02.894Z,11.14
2022-11-16T14:51:55.545Z,11.12
2022-11-16T14:54:52.744Z,11.10
2022-11-16T14:57:40.423Z,10.98
2022-11-16T15:00:30.476Z,10.98
2022-11-16T15:03:18.244Z,10.96
2022-11-16T15:06:07.947Z,10.92
2022-11-16T15:09:02.679Z,10.80
2022-11-16T15:12:09.917Z,10.89
2022-11-16T15:15:01.739Z,10.82
2022-11-16T15:18:07.464Z,10.83
2022-11-16T15:20:55.260Z,10.78
2022-11-16T15:24:02.392Z,10.79
2022-11-16T15:27:20.227Z,10.74
2022-11-16T15:30:37.183Z,10.76
2022-11-16T15:33:31.372Z,10.71
2022-11-16T15:36:31.421Z,10.40
2022-11-16T15:39:33.678Z,10.42
2022-11-16T15:42:21.591Z,10.67
2022-11-16T15:45:23.750Z,10.65
2022-11-16T15:48:19.118Z,10.58
2022-11-16T15:51:23.592Z,10.50
2022-11-16T15:54:22.312Z,10.38
2022-11-16T15:57:13.416Z,10.45
2022-11-16T16:00:02.208Z,10.34
2022-11-16T16:02:52.790Z,10.28
2022-11-16T16:05:41.238Z,10.28
2022-11-16T16:08:40.093Z,10.31
2022-11-16T16:11:28.692Z,10.32
2022-11-16T16:14:25.729Z,10.27
2022-11-16T16:17:24.366Z,10.26
2022-11-16T16:20:19.519Z,10.26
2022-11-16T16:23:07.731Z,10.24
2022-11-16T16:25:55.465Z,10.26
2022-11-16T16:28:44.111Z,10.22
2022-11-16T16:31:31.840Z,10.17
2022-11-16T16:34:19.683Z,10.12
2022-11-16T16:37:10.690Z,10.17
2022-11-16T16:39:59.506Z,9.97
2022-11-16T16:42:48.411Z,10.06
2022-11-16T16:45:39.099Z,9.92
2022-11-16T16:48:27.086Z,9.90
2022-11-16T16:51:17.233Z,9.84
2022-11-16T16:54:05.389Z,9.84
2022-11-16T16:56:56.964Z,9.89
2022-11-16T16:59:45.703Z,9.84
2022-11-16T17:02:33.656Z,9.88
2022-11-16T17:05:21.359Z,9.83
2022-11-16T17:08:09.046Z,9.86
2022-11-16T17:10:56.787Z,9.83
2022-11-16T17:13:44.468Z,9.90
2022-11-16T17:16:33.163Z,9.87
2022-11-16T17:19:23.227Z,9.73
2022-11-16T17:22:11.120Z,9.93
2022-11-16T17:24:58.794Z,10.03
2022-11-16T17:27:46.485Z,9.96
2022-11-16T17:30:34.068Z,10.00
2022-11-16T17:33:21.739Z,9.94
2022-11-16T17:36:12.994Z,9.73
2022-11-16T17:39:00.718Z,9.89
2022-11-16T17:41:48.857Z,9.91
2022-11-16T17:44:36.560Z,9.90
2022-11-16T17:47:24.239Z,9.87
2022-11-16T17:50:12.207Z,9.78
2022-11-16T17:52:59.853Z,9.92
2022-11-16T17:55:47.589Z,9.93
2022-11-16T17:58:35.300Z,9.83
2022-11-16T18:01:23.183Z,9.96
2022-11-16T18:04:10.915Z,9.92
2022-11-16T18:06:59.907Z,9.85
2022-11-16T18:09:47.509Z,9.84
2022-11-16T18:12:38.408Z,9.90
2022-11-16T18:15:28.849Z,9.73
2022-11-16T18:18:16.999Z,9.84
2022-11-16T18:21:05.889Z,9.84
2022-11-16T18:23:54.012Z,9.84
2022-11-16T18:26:42.503Z,9.88
2022-11-16T18:29:30.586Z,9.76
2022-11-16T18:32:18.506Z,9.90
2022-11-16T18:35:10.115Z,9.88
2022-11-16T18:37:57.839Z,9.80
2022-11-16T18:40:45.478Z,9.84
2022-11-16T18:43:34.636Z,9.80
2022-11-16T18:46:25.918Z,9.83
2022-11-16T18:49:13.992Z,9.87
2022-11-16T18:52:01.610Z,9.77
2022-11-16T18:54:49.304Z,9.82
2022-11-16T18:57:36.983Z,9.77
2022-11-16T19:00:27.517Z,9.74
2022-11-16T19:03:15.589Z,9.82
2022-11-16T19:06:08.959Z,9.85
2022-11-16T19:09:00.229Z,9.83
2022-11-16T19:11:47.938Z,9.84
2022-11-16T19:14:35.546Z,9.79
2022-11-16T19:17:25.216Z,9.83
2022-11-16T19:20:21.622Z,9.85
2022-11-16T19:23:29.405Z,9.88
2022-11-16T19:26:19.172Z,9.74
2022-11-16T19:29:07.173Z,9.84
2022-11-16T19:31:57.160Z,9.84
2022-11-16T19:34:44.975Z,9.91
2022-11-16T19:37:32.601Z,9.94
2022-11-16T19:40:24.861Z,9.73
2022-11-16T19:43:12.938Z,9.90
2022-11-16T19:46:18.657Z,9.89
2022-11-16T19:49:08.831Z,9.91
2022-11-16T19:51:56.431Z,9.93
2022-11-16T19:54:44.073Z,9.91
2022-11-16T19:57:34.554Z,9.88
2022-11-16T20:00:22.304Z,9.92
2022-11-16T20:03:10.080Z,9.93
2022-11-16T20:06:24.085Z,9.94
2022-11-16T20:09:12.382Z,9.85
2022-11-16T20:12:00.081Z,9.80
2022-11-16T20:14:47.796Z,9.91
2022-11-16T20:17:37.771Z,9.99
2022-11-16T20:20:25.631Z,9.88
2022-11-16T20:23:16.114Z,9.93
2022-11-16T20:26:09.919Z,9.96
2022-11-16T20:29:00.222Z,10.04
2022-11-16T20:31:47.955Z,9.97
2022-11-16T20:34:35.991Z,9.89
2022-11-16T20:37:23.715Z,10.04
2022-11-16T20:40:11.778Z,9.98
2022-11-16T20:43:00.439Z,10.00
2022-11-16T20:45:52.701Z,9.92
2022-11-16T20:48:41.822Z,9.96
2022-11-16T20:51:30.305Z,9.93
2022-11-16T20:54:18.084Z,9.92
2022-11-16T20:57:06.429Z,10.05
2022-11-16T20:59:54.185Z,9.95
2022-11-16T21:02:47.146Z,9.99
2022-11-16T21:05:34.820Z,9.93
2022-11-16T21:08:22.645Z,10.02
2022-11-16T21:11:19.409Z,9.90
2022-11-16T21:14:17.238Z,10.10
2022-11-16T21:17:04.811Z,10.13
2022-11-16T21:20:25.398Z,10.15
2022-11-16T21:23:03.093Z,10.21
2022-11-16T21:25:50.772Z,10.20
2022-11-16T21:28:38.775Z,10.15
2022-11-16T21:31:33.627Z,10.30
2022-11-16T21:34:21.326Z,10.23
2022-11-16T21:37:09.096Z,10.31
2022-11-16T21:39:56.725Z,10.52
2022-11-16T21:42:44.348Z,10.50
2022-11-16T21:45:31.975Z,10.39
2022-11-16T21:48:22.026Z,10.62
2022-11-16T21:51:10.848Z,10.62
2022-11-16T21:54:01.002Z,10.50
2022-11-16T21:56:48.644Z,10.52
2022-11-16T21:59:36.395Z,10.60
2022-11-16T22:02:24.057Z,10.59
2022-11-16T22:05:34.488Z,10.60
2022-11-16T22:08:22.251Z,10.50
2022-11-16T22:11:11.181Z,10.58
2022-11-16T22:13:58.907Z,10.54
2022-11-16T22:16:46.493Z,10.66
2022-11-16T22:19:34.116Z,10.74
2022-11-16T22:22:22.625Z,10.77
2022-11-16T22:25:10.416Z,10.70
2022-11-16T22:28:19.693Z,10.81
2022-11-16T22:31:16.568Z,10.80
2022-11-16T22:34:04.333Z,10.78
2022-11-16T22:36:51.959Z,10.77
2022-11-16T22:39:39.618Z,10.79
2022-11-16T22:42:27.476Z,10.75
2022-11-16T22:45:15.271Z,10.76
2022-11-16T22:48:03.068Z,10.71
2022-11-16T22:50:50.674Z,10.82
2022-11-16T22:53:38.631Z,10.82
2022-11-16T22:56:27.345Z,10.71
2022-11-16T22:59:15.110Z,10.69
2022-11-16T23:02:05.298Z,10.83
2022-11-16T23:04:52.932Z,10.83
2022-11-16T23:07:44.109Z,10.79
2022-11-16T23:10:51.690Z,10.68
2022-11-16T23:13:57.948Z,10.69
2022-11-16T23:16:46.257Z,10.56
2022-11-16T23:19:53.488Z,10.68
2022-11-16T23:22:59.573Z,10.51
2022-11-16T23:26:05.854Z,10.64
2022-11-16T23:28:53.689Z,10.63
2022-11-16T23:31:42.026Z,10.66
2022-11-16T23:34:29.592Z,10.62
2022-11-16T23:37:17.211Z,10.60
2022-11-16T23:40:05.344Z,10.69
2022-11-16T23:43:11.955Z,10.62
2022-11-16T23:45:59.729Z,10.74
2022-11-16T23:48:47.380Z,10.77
2022-11-16T23:51:35.090Z,10.77
2022-11-16T23:54:22.814Z,10.71
2022-11-16T23:57:10.551Z,10.69
2022-11-16T23:59:58.290Z,10.78
